D/T METAR WX W/SPE G/SPE TEMP DEWP FEEL
31/01/23 13:20 EGPA 311320Z 27026KT 9999 VCSH FEW018CB BKN035 04/01 Q1001 VCSH 29.9mph 4°C 1°C 2.1°C
31/01/23 12:20 EGPA 311220Z 26027KT 9999 VCSH FEW018CB SCT031 05/02 Q1001 VCSH 31.1mph 5°C 2°C 3.4°C
31/01/23 05:50 EGPA 310550Z AUTO 26026G36KT 9999 FEW036/// 05/01 Q1000 29.9mph 41.4mph 5°C 1°C 3.1°C
30/01/23 21:50 EGPA 302150Z AUTO 18015KT 9999 -RA FEW004/// BKN010/// BKN020/// 05/03 Q1007 RERA -RA 17.3mph 5°C 3°C 3.7°C
30/01/23 12:50 EGPA 301250Z 32016KT 9999 VCSH FEW018 SCT039 05/00 Q1016 VCSH 18.4mph 5°C 0°C 2.8°C
30/01/23 11:50 EGPA 301150Z 30014KT 9999 VCSH FEW018 SCT039 05/01 Q1016 VCSH 16.1mph 5°C 1°C 3.1°C
30/01/23 10:50 EGPA 301050Z 31017KT 9999 VCSH FEW018 SCT034 05/M00 Q1015 VCSH 19.6mph 5°C 0°C 2.8°C
30/01/23 10:20 EGPA 301020Z 31013KT 9999 VCSH FEW018 SCT034 05/00 Q1015 VCSH 15.0mph 5°C 0°C 2.8°C
30/01/23 07:50 EGPA 300750Z 32018KT 9999 VCSH FEW013 04/01 Q1012 VCSH 20.7mph 4°C 1°C 2.1°C
30/01/23 06:50 EGPA 300650Z 31017KT 9999 VCSH FEW011 BKN031 05/01 Q1011 VCSH 19.6mph 5°C 1°C 3.1°C
09/01/23 06:20 EGPA 090620Z 21010KT 7000 -RA SCT012 BKN022 BKN031 05/03 Q0980 -RA 11.5mph 5°C 3°C 3.7°C
09/01/23 05:50 EGPA 090550Z 20012KT 7000 -RA SCT012 BKN022 BKN031 05/03 Q0979 -RA 13.8mph 5°C 3°C 3.7°C
09/01/23 05:20 EGPA 090520Z AUTO 19009KT 9999 SCT026/// BKN035/// BKN043/// 05/03 Q0979 10.4mph 5°C 3°C 3.7°C
09/01/23 04:50 EGPA 090450Z AUTO 18010KT 9999 FEW026/// BKN032/// 05/03 Q0979 11.5mph 5°C 3°C 3.7°C
09/01/23 04:20 EGPA 090420Z AUTO 20011KT 9999 SCT025/// SCT031/// 05/03 Q0978 12.7mph 5°C 3°C 3.7°C
09/01/23 03:50 EGPA 090350Z AUTO 22010KT 9999 FEW029/// 06/04 Q0978 RERA 11.5mph 6°C 4°C 5.0°C
09/01/23 03:20 EGPA 090320Z AUTO 20010KT 9999 FEW035/// 05/03 Q0978 11.5mph 5°C 3°C 3.7°C
09/01/23 02:50 EGPA 090250Z AUTO 21011KT 9999 -RA SCT016/// BKN024/// BKN030/// 06/04 Q0978 -RA 12.7mph 6°C 4°C 5.0°C
09/01/23 02:20 EGPA 090220Z AUTO 19009KT 9999 BKN020/// 04/03 Q0977 10.4mph 4°C 3°C 2.7°C
09/01/23 01:50 EGPA 090150Z AUTO 20010KT 9999 NCD 04/03 Q0977 11.5mph 4°C 3°C 2.7°C
09/01/23 00:50 EGPA 090050Z AUTO 18008KT 9999 NCD 04/02 Q0976 9.2mph 4°C 2°C 2.4°C
09/01/23 00:20 EGPA 090020Z AUTO 18010KT 9999 NCD 04/03 Q0976 11.5mph 4°C 3°C 2.7°C
08/01/23 23:50 EGPA 082350Z 19010KT 9999 SCT036 BKN040 05/03 Q0976 11.5mph 5°C 3°C 3.7°C
08/01/23 23:20 EGPA 082320Z 18011KT 9999 SCT035 BKN041 05/03 Q0976 12.7mph 5°C 3°C 3.7°C
08/01/23 22:20 EGPA 082220Z 18008KT 9999 -RA FEW003 SCT023 BKN042 05/03 Q0976 -RA 9.2mph 5°C 3°C 3.7°C
08/01/23 21:50 EGPA 082150Z AUTO 19011KT 9999 -RA FEW025/// SCT031/// BKN039/// 06/03 Q0976 -RA 12.7mph 6°C 3°C 4.7°C
08/01/23 20:20 EGPA 082020Z AUTO 18013KT 9999 BKN035/// BKN041/// 06/02 Q0975 15.0mph 6°C 2°C 4.4°C
08/01/23 19:20 EGPA 081920Z 18015KT 9999 FEW019 SCT045 06/02 Q0975 17.3mph 6°C 2°C 4.4°C
08/01/23 18:50 EGPA 081850Z 18016KT 9999 FEW019 SCT042 06/01 Q0975 18.4mph 6°C 1°C 4.1°C
08/01/23 18:20 EGPA 081820Z 19018KT 9999 FEW019 SCT042 07/01 Q0975 20.7mph 7°C 1°C 5.1°C
08/01/23 17:50 EGPA 081750Z 19017KT 9999 FEW016 SCT040 07/01 Q0974 19.6mph 7°C 1°C 5.1°C
08/01/23 17:20 EGPA 081720Z 18019KT 9999 -RA FEW016 SCT040 07/01 Q0974 -RA 21.9mph 7°C 1°C 5.1°C
08/01/23 16:50 EGPA 081650Z 18019KT 9999 -RA FEW016 SCT035 07/01 Q0974 -RA 21.9mph 7°C 1°C 5.1°C
08/01/23 16:20 EGPA 081620Z 18019G29KT 9999 FEW014 SCT034 07/01 Q0974 21.9mph 33.4mph 7°C 1°C 5.1°C
08/01/23 15:50 EGPA 081550Z 18022G32KT 9999 FEW014 SCT034 07/01 Q0974 25.3mph 36.8mph 7°C 1°C 5.1°C
08/01/23 15:20 EGPA 081520Z 17025G36KT 9999 -RA FEW014 SCT034 07/02 Q0974 RERA -RA 28.8mph 41.4mph 7°C 2°C 5.4°C
08/01/23 14:20 EGPA 081420Z 18021KT 9999 VCSH FEW010 07/01 Q0974 VCSH 24.2mph 7°C 1°C 5.1°C
08/01/23 13:50 EGPA 081350Z 18023KT 9999 VCSH FEW035 07/01 Q0974 VCSH 26.5mph 7°C 1°C 5.1°C
08/01/23 13:20 EGPA 081320Z 19030G43KT 9999 FEW035 07/01 Q0974 34.5mph 49.5mph 7°C 1°C 5.1°C
08/01/23 12:50 EGPA 081250Z 18023KT 9999 FEW035 07/01 Q0974 26.5mph 7°C 1°C 5.1°C
08/01/23 12:20 EGPA 081220Z 18025G36KT 9999 FEW035 07/01 Q0973 28.8mph 41.4mph 7°C 1°C 5.1°C
08/01/23 11:50 EGPA 081150Z 18027G38KT 9999 FEW035 07/01 Q0973 31.1mph 43.7mph 7°C 1°C 5.1°C
08/01/23 11:20 EGPA 081120Z 17024G37KT 9999 FEW035 07/02 Q0973 27.6mph 42.6mph 7°C 2°C 5.4°C
08/01/23 10:50 EGPA 081050Z 17025G36KT 9999 FEW043 07/02 Q0974 28.8mph 41.4mph 7°C 2°C 5.4°C
08/01/23 10:20 EGPA 081020Z 18023KT 9999 FEW012 07/01 Q0974 26.5mph 7°C 1°C 5.1°C
08/01/23 09:50 EGPA 080950Z 17025KT 9999 FEW012 07/02 Q0974 28.8mph 7°C 2°C 5.4°C
08/01/23 09:20 EGPA 080920Z 18020KT 9999 FEW012 07/01 Q0974 23.0mph 7°C 1°C 5.1°C
08/01/23 08:50 EGPA 080850Z 17020G30KT 9999 FEW012 07/02 Q0974 23.0mph 34.5mph 7°C 2°C 5.4°C
08/01/23 08:20 EGPA 080820Z 17017KT 9999 FEW012 06/02 Q0974 19.6mph 6°C 2°C 4.4°C
08/01/23 07:50 EGPA 080750Z AUTO 17016KT 9999 NCD 06/02 Q0974 18.4mph 6°C 2°C 4.4°C
08/01/23 07:20 EGPA 080720Z AUTO 18014KT 9999 NCD 06/02 Q0974 16.1mph 6°C 2°C 4.4°C
08/01/23 06:50 EGPA 080650Z AUTO 17015KT 9999 NCD 06/03 Q0974 17.3mph 6°C 3°C 4.7°C
08/01/23 06:20 EGPA 080620Z AUTO 19015KT 9999 NCD 06/03 Q0974 17.3mph 6°C 3°C 4.7°C
08/01/23 05:50 EGPA 080550Z AUTO 18017KT 9999 NCD 06/03 Q0974 19.6mph 6°C 3°C 4.7°C
08/01/23 05:20 EGPA 080520Z AUTO 18016KT 9999 NCD 06/03 Q0974 18.4mph 6°C 3°C 4.7°C
08/01/23 04:50 EGPA 080450Z AUTO 19016KT 9999 NCD 07/03 Q0974 18.4mph 7°C 3°C 5.7°C
08/01/23 04:20 EGPA 080420Z 18020KT 9999 FEW016 07/04 Q0974 23.0mph 7°C 4°C 6.0°C
08/01/23 03:50 EGPA 080350Z 17018KT 9999 FEW016 08/04 Q0974 20.7mph 8°C 4°C 7.0°C
08/01/23 03:20 EGPA 080320Z 17021KT 9999 FEW016 08/04 Q0974 24.2mph 8°C 4°C 7.0°C
08/01/23 02:50 EGPA 080250Z 17021KT 9999 FEW012 07/04 Q0973 24.2mph 7°C 4°C 6.0°C
08/01/23 02:20 EGPA 080220Z 17019KT 9999 FEW010 07/05 Q0974 21.9mph 7°C 5°C 6.3°C
08/01/23 01:50 EGPA 080150Z 17019KT 9999 FEW010 07/04 Q0974 21.9mph 7°C 4°C 6.0°C
08/01/23 01:20 EGPA 080120Z 17019KT 9999 FEW012 07/04 Q0974 21.9mph 7°C 4°C 6.0°C
08/01/23 00:20 EGPA 080020Z 16022G32KT 9999 FEW012 07/04 Q0975 25.3mph 36.8mph 7°C 4°C 6.0°C
07/01/23 23:50 EGPA 072350Z AUTO 16021KT 9999 NCD 07/04 Q0975 24.2mph 7°C 4°C 6.0°C
07/01/23 23:20 EGPA 072320Z AUTO 16018KT 9999 NCD 07/04 Q0975 20.7mph 7°C 4°C 6.0°C
07/01/23 22:50 EGPA 072250Z AUTO 16019KT 9999 NCD 07/04 Q0976 21.9mph 7°C 4°C 6.0°C
07/01/23 22:20 EGPA 072220Z AUTO 16020KT 9999 NCD 07/04 Q0976 23.0mph 7°C 4°C 6.0°C
07/01/23 21:50 EGPA 072150Z AUTO 16018KT 9999 NCD 07/04 Q0977 20.7mph 7°C 4°C 6.0°C
07/01/23 21:20 EGPA 072120Z AUTO 16017KT 9999 NCD 07/04 Q0977 19.6mph 7°C 4°C 6.0°C
07/01/23 20:50 EGPA 072050Z AUTO 17015KT 9999 NCD 07/04 Q0978 17.3mph 7°C 4°C 6.0°C
07/01/23 20:20 EGPA 072020Z AUTO 17016KT 9999 NCD 07/04 Q0978 18.4mph 7°C 4°C 6.0°C
07/01/23 19:50 EGPA 071950Z AUTO 17014KT 9999 NCD 07/04 Q0978 16.1mph 7°C 4°C 6.0°C
07/01/23 19:20 EGPA 071920Z AUTO 17012KT 9999 NCD 07/04 Q0978 13.8mph 7°C 4°C 6.0°C
07/01/23 18:50 EGPA 071850Z AUTO 17012KT 9999 FEW045/// 07/05 Q0979 13.8mph 7°C 5°C 6.3°C
07/01/23 18:20 EGPA 071820Z AUTO 17009KT 9999 BKN042/// 07/06 Q0979 10.4mph 7°C 6°C 6.6°C
07/01/23 17:50 EGPA 071750Z AUTO 17009KT 9999 FEW044/// 07/06 Q0979 10.4mph 7°C 6°C 6.6°C
07/01/23 17:20 EGPA 071720Z AUTO 17009KT 9999 NCD 06/05 Q0979 10.4mph 6°C 5°C 5.3°C
07/01/23 16:50 EGPA 071650Z 17008KT 9999 FEW009 06/05 Q0979 9.2mph 6°C 5°C 5.3°C
07/01/23 16:20 EGPA 071620Z 16007KT 9999 FEW009 05/04 Q0980 8.1mph 5°C 4°C 4.0°C
07/01/23 15:50 EGPA 071550Z 17008KT 9999 FEW009 06/05 Q0980 9.2mph 6°C 5°C 5.3°C
07/01/23 15:20 EGPA 071520Z 17007KT 9999 FEW009 07/06 Q0980 8.1mph 7°C 6°C 6.6°C
07/01/23 14:50 EGPA 071450Z 18005KT 9999 VCSH FEW009 07/05 Q0981 VCSH 5.8mph 7°C 5°C 6.3°C
07/01/23 14:20 EGPA 071420Z 17007KT 9999 VCSH FEW009 07/05 Q0981 VCSH 8.1mph 7°C 5°C 6.3°C
07/01/23 13:20 EGPA 071320Z 19007KT 9999 FEW009 07/06 Q0982 8.1mph 7°C 6°C 6.6°C
07/01/23 12:50 EGPA 071250Z 19008KT 9999 FEW009 08/06 Q0982 9.2mph 8°C 6°C 7.6°C
07/01/23 12:20 EGPA 071220Z 18006KT 9999 VCSH FEW008 08/07 Q0983 VCSH 6.9mph 8°C 7°C 8.0°C
07/01/23 11:50 EGPA 071150Z 19008KT 9999 VCSH FEW008 08/07 Q0984 VCSH 9.2mph 8°C 7°C 8.0°C
07/01/23 11:20 EGPA 071120Z 19008KT 9999 VCSH FEW007 08/07 Q0984 VCSH 9.2mph 8°C 7°C 8.0°C
07/01/23 10:50 EGPA 071050Z 19007KT 9999 VCSH FEW007 08/07 Q0984 VCSH 8.1mph 8°C 7°C 8.0°C
07/01/23 10:20 EGPA 071020Z 18010KT 9999 VCSH FEW007 08/07 Q0985 VCSH 11.5mph 8°C 7°C 8.0°C
07/01/23 09:50 EGPA 070950Z 18010KT 9999 VCSH FEW006 08/07 Q0985 VCSH 11.5mph 8°C 7°C 8.0°C
07/01/23 09:20 EGPA 070920Z 17009KT 9999 VCSH FEW004 08/07 Q0985 VCSH 10.4mph 8°C 7°C 8.0°C
07/01/23 08:20 EGPA 070820Z 17009KT 9999 VCSH FEW008 SCT033 08/07 Q0985 VCSH 10.4mph 8°C 7°C 8.0°C
07/01/23 07:50 EGPA 070750Z 17010KT 9999 -RA FEW004 BKN033 08/07 Q0986 -RA 11.5mph 8°C 7°C 8.0°C
07/01/23 07:20 EGPA 070720Z 17010KT 9000 -RA FEW004 BKN006 08/07 Q0986 -RA 11.5mph 8°C 7°C 8.0°C